Time;durP1;ratioP1;P1;durP2;ratioP2;P2;SDS_P1;SDS_P2;PMS_P1;PMS_P2;Temp;Humidity;BMP_temperature;BMP_pressure;BME280_temperature;BME280_humidity;BME280_pressure;Samples;Min_cycle;Max_cycle;Signal;HPM_P1;HPM_P2
2023/07/06 00:01:55;;;;;;;14.38;6.35;;;;;;;13.14;100.00;101289.50;5053540;28;19917;-50
2023/07/06 00:04:21;;;;;;;15.30;6.07;;;;;;;13.56;100.00;101365.56;5052913;28;20044;-50
2023/07/06 00:06:47;;;;;;;16.10;6.30;;;;;;;13.59;100.00;101363.69;5052686;28;20158;-56
2023/07/06 00:09:14;;;;;;;15.57;6.40;;;;;;;13.66;100.00;101359.03;5073528;28;20392;-55
2023/07/06 00:11:40;;;;;;;15.20;6.15;;;;;;;13.16;100.00;101271.84;5073465;28;20124;-55
2023/07/06 00:14:07;;;;;;;13.00;7.00;;;;;;;13.68;100.00;101366.00;5073804;28;20127;-50
2023/07/06 00:16:33;;;;;;;14.23;6.25;;;;;;;13.71;100.00;101368.53;5072312;28;20498;-56
2023/07/06 00:18:59;;;;;;;20.58;6.07;;;;;;;13.76;100.00;101369.22;5073690;28;20115;-52
2023/07/06 00:21:29;;;;;;;20.92;6.78;;;;;;;13.39;100.00;101308.88;5055672;28;20508;-55
2023/07/06 00:23:57;;;;;;;14.85;6.32;;;;;;;13.66;100.00;101337.88;5071345;28;20044;-49
2023/07/06 00:26:22;;;;;;;16.05;6.63;;;;;;;13.57;100.00;101309.13;5055485;28;20051;-51
2023/07/06 00:28:51;;;;;;;12.48;5.32;;;;;;;13.44;100.00;101290.19;5073276;28;20033;-48
2023/07/06 00:31:21;;;;;;;13.60;6.32;;;;;;;13.96;100.00;101364.03;5072095;28;20472;-55
2023/07/06 00:33:48;;;;;;;13.88;5.40;;;;;;;14.01;100.00;101377.09;5073271;28;20037;-57
2023/07/06 00:36:14;;;;;;;19.27;6.07;;;;;;;14.05;100.00;101366.34;5055452;28;20036;-49
2023/07/06 00:38:40;;;;;;;12.70;4.85;;;;;;;14.06;100.00;101367.22;5071827;28;20507;-54
2023/07/06 00:41:05;;;;;;;16.40;6.32;;;;;;;13.70;100.00;101313.03;5073120;28;20043;-51
2023/07/06 00:43:52;;;;;;;15.98;5.43;;;;;;;13.69;100.00;101312.16;5072987;28;20336;-54
2023/07/06 00:46:18;;;;;;;11.00;4.82;;;;;;;14.01;100.00;101364.72;5055265;28;20039;-53
2023/07/06 00:48:45;;;;;;;12.35;5.35;;;;;;;14.03;100.00;101359.38;5054874;28;20044;-49
2023/07/06 00:51:24;;;;;;;16.65;5.03;;;;;;;13.65;100.00;101289.41;5055128;28;20032;-59
2023/07/06 00:53:53;;;;;;;9.80;4.82;;;;;;;14.23;100.00;101382.44;5068468;28;20055;-49
2023/07/06 00:56:23;;;;;;;15.20;5.70;;;;;;;13.86;100.00;101293.00;5052921;28;20115;-50
2023/07/06 00:58:50;;;;;;;21.17;5.82;;;;;;;13.97;100.00;101317.28;5051756;28;20029;-49
2023/07/06 01:01:20;;;;;;;15.68;4.75;;;;;;;14.21;100.00;101352.53;5052638;28;20044;-51
2023/07/06 01:03:52;;;;;;;11.93;4.28;;;;;;;14.10;100.00;101339.69;5051525;28;20056;-53
2023/07/06 01:06:23;;;;;;;17.60;5.22;;;;;;;13.86;100.00;101307.09;5051419;28;20037;-53
2023/07/06 01:08:49;;;;;;;13.63;4.68;;;;;;;13.85;100.00;101301.84;5051212;28;20088;-51
2023/07/06 01:11:14;;;;;;;15.68;5.43;;;;;;;13.77;100.00;101294.22;5048540;28;20055;-51
2023/07/06 01:13:48;;;;;;;11.57;5.47;;;;;;;14.17;100.00;101364.13;5054704;28;20036;-52
2023/07/06 01:16:39;;;;;;;16.73;4.80;;;;;;;14.17;100.00;101362.34;5070715;28;20036;-51
2023/07/06 01:19:23;;;;;;;16.25;5.45;;;;;;;14.19;100.00;101364.94;5043470;28;20097;-56
2023/07/06 01:21:54;;;;;;;17.80;5.47;;;;;;;13.68;100.00;101278.69;5072447;28;20430;-50
2023/07/06 01:24:31;;;;;;;14.60;4.78;;;;;;;13.74;100.00;101282.91;5072239;28;20389;-51
2023/07/06 01:27:05;;;;;;;14.85;5.00;;;;;;;14.14;100.00;101356.31;5072303;28;20020;-55
2023/07/06 01:29:59;;;;;;;13.85;5.40;;;;;;;14.07;100.00;101353.91;5072354;28;20111;-51
2023/07/06 01:32:26;;;;;;;20.65;6.20;;;;;;;14.19;100.00;101363.16;5063752;28;20500;-51
2023/07/06 01:34:57;;;;;;;11.82;4.68;;;;;;;14.20;100.00;101371.97;5050919;28;20033;-56
2023/07/06 01:37:23;;;;;;;;;;;;;;;14.21;100.00;101357.81;5051338;28;20373;-54
2023/07/06 01:39:48;;;;;;;16.07;5.70;;;;;;;14.24;100.00;101370.94;5051935;28;19939;-48
2023/07/06 01:42:29;;;;;;;22.75;7.07;;;;;;;14.22;100.00;101359.50;5051097;28;20737;-50
2023/07/06 01:44:57;;;;;;;20.42;6.07;;;;;;;13.84;100.00;101293.06;5034443;28;20554;-56
2023/07/06 01:47:24;;;;;;;16.75;5.32;;;;;;;14.18;100.00;101357.94;5050827;28;20025;-58
2023/07/06 01:49:51;;;;;;;16.63;5.43;;;;;;;14.09;100.00;101354.72;5057604;28;20032;-53
2023/07/06 01:52:24;;;;;;;18.75;6.03;;;;;;;13.66;100.00;101295.56;5071990;28;20103;-52
2023/07/06 01:55:09;;;;;;;13.20;5.28;;;;;;;13.76;100.00;101316.31;5071661;28;20098;-51
2023/07/06 01:58:04;;;;;;;17.13;5.32;;;;;;;14.01;100.00;101369.16;5070612;28;20533;-49
2023/07/06 02:00:30;;;;;;;14.68;6.20;;;;;;;13.56;100.00;101286.22;5022220;28;20048;-56
2023/07/06 02:02:55;;;;;;;15.95;5.63;;;;;;;13.92;100.00;101356.28;5070309;28;20032;-51
2023/07/06 02:05:22;;;;;;;19.83;5.63;;;;;;;13.57;100.00;101302.06;5070886;28;20043;-54
2023/07/06 02:07:49;;;;;;;19.83;5.85;;;;;;;13.92;100.00;101380.94;5071931;28;20045;-51
2023/07/06 02:10:17;;;;;;;23.02;6.65;;;;;;;13.52;100.00;101296.06;5054291;28;20032;-54
2023/07/06 02:12:47;;;;;;;19.35;6.80;;;;;;;13.55;100.00;101290.66;5071824;28;20028;-50
2023/07/06 02:15:12;;;;;;;20.70;5.95;;;;;;;13.59;100.00;101294.06;5071748;28;20040;-50
2023/07/06 02:17:38;;;;;;;21.70;6.65;;;;;;;13.62;100.00;101291.28;5072051;28;20033;-54
2023/07/06 02:20:03;;;;;;;19.55;6.50;;;;;;;14.04;100.00;101369.03;5071937;28;20033;-52
2023/07/06 02:22:29;;;;;;;15.93;5.50;;;;;;;14.01;100.00;101358.56;5070881;28;20060;-52
2023/07/06 02:24:54;;;;;;;25.63;7.28;;;;;;;13.79;100.00;101318.84;5071967;28;20045;-49
2023/07/06 02:27:19;;;;;;;24.88;7.35;;;;;;;13.85;100.00;101338.91;5072555;28;20043;-47
2023/07/06 02:29:45;;;;;;;22.98;5.88;;;;;;;13.49;100.00;101289.09;5075596;28;20483;-54
2023/07/06 02:32:11;;;;;;;21.02;6.28;;;;;;;13.86;100.00;101356.53;5075480;28;20043;-51
2023/07/06 02:34:36;;;;;;;22.98;6.90;;;;;;;13.23;100.00;101253.97;5075428;28;20498;-51
2023/07/06 02:37:02;;;;;;;19.30;7.00;;;;;;;13.43;100.00;101297.25;5069903;28;20029;-50
2023/07/06 02:39:27;;;;;;;21.48;6.78;;;;;;;13.33;100.00;101284.44;5055356;28;20037;-56
2023/07/06 02:41:54;;;;;;;15.73;6.40;;;;;;;13.35;100.00;101296.69;5055387;28;20029;-52
2023/07/06 02:44:21;;;;;;;20.75;7.18;;;;;;;13.63;100.00;101344.13;5053943;28;20060;-56
2023/07/06 02:46:47;;;;;;;20.45;7.80;;;;;;;13.67;100.00;101363.41;5055355;28;20123;-58
2023/07/06 02:49:13;;;;;;;18.25;6.57;;;;;;;13.51;100.00;101336.66;5055431;28;20045;-49
2023/07/06 02:51:38;;;;;;;22.88;7.53;;;;;;;13.58;100.00;101346.09;5053702;28;20044;-50
2023/07/06 02:54:04;;;;;;;22.70;6.97;;;;;;;13.28;100.00;101307.56;5054001;28;20032;-55
2023/07/06 02:56:29;;;;;;;18.55;7.82;;;;;;;13.56;100.00;101363.81;5074601;28;20162;-53
2023/07/06 02:58:54;;;;;;;26.70;8.10;;;;;;;13.64;100.00;101379.38;5074765;28;20118;-54
2023/07/06 03:01:20;;;;;;;22.00;7.65;;;;;;;13.63;100.00;101370.56;5075450;28;20459;-48
2023/07/06 03:03:46;;;;;;;25.60;8.48;;;;;;;13.67;100.00;101376.63;5075044;28;20033;-52
2023/07/06 03:06:12;;;;;;;22.55;7.82;;;;;;;13.26;100.00;101304.06;5074867;28;20041;-56
2023/07/06 03:08:40;;;;;;;27.85;8.23;;;;;;;13.62;100.00;101366.22;5074570;28;20079;-54
2023/07/06 03:11:06;;;;;;;25.05;7.97;;;;;;;13.22;100.00;101302.47;5073479;28;20553;-53
2023/07/06 03:13:31;;;;;;;20.67;8.07;;;;;;;13.28;100.00;101312.84;5074780;28;20033;-58
2023/07/06 03:15:56;;;;;;;24.10;8.13;;;;;;;13.70;100.00;101387.09;5074832;28;20044;-50
2023/07/06 03:18:23;;;;;;;26.38;8.25;;;;;;;13.70;100.00;101392.38;5075088;28;20037;-52
2023/07/06 03:20:49;;;;;;;23.90;7.60;;;;;;;13.19;100.00;101313.16;5057130;28;20360;-52
2023/07/06 03:23:14;;;;;;;25.35;8.45;;;;;;;13.67;100.00;101389.84;5074565;28;20032;-50
2023/07/06 03:25:40;;;;;;;24.58;7.38;;;;;;;13.64;100.00;101392.59;5074656;28;20111;-53
2023/07/06 03:28:05;;;;;;;25.50;8.20;;;;;;;13.59;100.00;101384.84;5073440;28;20518;-52
2023/07/06 03:30:30;;;;;;;20.70;8.27;;;;;;;13.13;100.00;101316.03;5074801;28;20105;-57
2023/07/06 03:32:58;;;;;;;19.65;7.10;;;;;;;13.57;100.00;101405.22;5074668;28;20033;-50
2023/07/06 03:35:25;;;;;;;26.33;8.32;;;;;;;13.15;100.00;101322.09;5073194;28;20475;-49
2023/07/06 03:37:50;;;;;;;20.00;7.32;;;;;;;13.36;100.00;101369.81;5074174;28;20112;-54
2023/07/06 03:40:16;;;;;;;20.50;7.95;;;;;;;13.35;100.00;101381.28;5074189;28;20107;-49
2023/07/06 03:42:45;;;;;;;24.13;8.57;;;;;;;13.16;100.00;101350.28;5074038;28;20083;-55
2023/07/06 03:45:12;;;;;;;21.75;8.13;;;;;;;13.41;100.00;101404.00;5055718;28;20064;-52
2023/07/06 03:47:38;;;;;;;21.08;8.00;;;;;;;13.01;100.00;101341.06;5054102;28;20037;-55
2023/07/06 03:50:10;;;;;;;20.67;7.70;;;;;;;13.33;100.00;101395.50;5053943;28;20025;-52
2023/07/06 03:52:39;;;;;;;20.73;8.32;;;;;;;13.33;100.00;101406.06;5054095;28;20459;-59
2023/07/06 03:55:05;;;;;;;18.73;8.15;;;;;;;13.37;100.00;101408.53;5053761;28;20452;-51
2023/07/06 03:57:31;;;;;;;24.33;8.70;;;;;;;12.97;100.00;101339.44;5052676;28;20116;-51
2023/07/06 03:59:56;;;;;;;24.50;8.55;;;;;;;13.34;100.00;101406.00;5066033;28;20119;-53
2023/07/06 04:02:22;;;;;;;24.85;8.70;;;;;;;13.42;100.00;101405.75;5074217;28;20112;-49
2023/07/06 04:04:47;;;;;;;28.17;8.25;;;;;;;13.19;100.00;101366.88;5072687;28;20143;-57
2023/07/06 04:07:13;;;;;;;26.10;7.80;;;;;;;13.04;100.00;101335.69;5068935;28;20045;-55
2023/07/06 04:09:39;;;;;;;24.35;8.20;;;;;;;13.02;100.00;101340.13;5053606;28;20029;-54
2023/07/06 04:12:06;;;;;;;24.05;9.20;;;;;;;12.99;100.00;101341.09;5053881;28;20483;-57
2023/07/06 04:14:31;;;;;;;24.63;9.68;;;;;;;13.24;100.00;101375.53;5052391;28;20205;-51
2023/07/06 04:16:56;;;;;;;32.72;9.75;;;;;;;13.58;100.00;101419.28;5043106;28;20544;-52
2023/07/06 04:19:25;;;;;;;28.17;8.68;;;;;;;13.14;100.00;101337.09;5033680;28;20366;-52
2023/07/06 04:21:53;;;;;;;26.75;9.25;;;;;;;13.66;100.00;101417.25;5048958;28;20040;-52
2023/07/06 04:24:18;;;;;;;27.50;9.68;;;;;;;13.73;100.00;101418.72;5033295;28;20396;-50
2023/07/06 04:26:46;;;;;;;30.83;9.57;;;;;;;13.62;100.00;101397.09;5033299;28;20029;-51
2023/07/06 04:29:12;;;;;;;35.20;10.00;;;;;;;13.82;100.00;101426.34;5040455;28;20506;-49
2023/07/06 04:31:38;;;;;;;26.95;9.85;;;;;;;13.47;100.00;101348.25;5053571;28;20033;-52
2023/07/06 04:34:04;;;;;;;30.02;9.82;;;;;;;13.50;100.00;101348.16;5068525;28;20033;-54
2023/07/06 04:36:31;;;;;;;30.20;11.50;;;;;;;13.95;100.00;101423.19;5053265;28;20064;-50
2023/07/06 04:39:00;;;;;;;26.35;11.00;;;;;;;13.88;100.00;101405.81;5053141;28;20033;-49
2023/07/06 04:41:27;;;;;;;23.50;10.05;;;;;;;14.00;100.00;101426.53;5053234;28;20461;-54
2023/07/06 04:43:52;;;;;;;25.67;11.02;;;;;;;14.06;100.00;101423.66;5050749;28;20453;-56
2023/07/06 04:46:20;;;;;;;32.42;10.55;;;;;;;14.05;100.00;101427.22;5068454;28;20091;-52
2023/07/06 04:48:46;;;;;;;33.05;11.00;;;;;;;14.05;100.00;101423.72;5053438;28;20064;-54
2023/07/06 04:51:12;;;;;;;26.65;11.43;;;;;;;13.70;100.00;101379.16;5051168;28;20102;-54
2023/07/06 04:53:37;;;;;;;24.83;10.68;;;;;;;13.61;100.00;101368.91;5051521;28;20041;-49
2023/07/06 04:56:03;;;;;;;32.78;11.73;;;;;;;14.01;100.00;101444.13;5067776;28;20037;-53
2023/07/06 04:58:29;;;;;;;33.42;11.95;;;;;;;14.01;100.00;101427.38;5053041;28;20032;-50
2023/07/06 05:00:54;;;;;;;30.75;12.30;;;;;;;13.79;100.00;101389.41;5047327;28;20091;-55
2023/07/06 05:03:19;;;;;;;27.05;11.25;;;;;;;14.05;100.00;101434.28;5032925;28;20076;-57
2023/07/06 05:05:46;;;;;;;28.48;11.13;;;;;;;14.18;100.00;101447.94;5032759;28;20044;-52
2023/07/06 05:08:15;;;;;;;33.33;13.07;;;;;;;14.29;100.00;101451.06;5044452;28;20048;-56
2023/07/06 05:10:43;;;;;;;33.38;12.30;;;;;;;14.18;100.00;101430.28;5052622;28;20091;-55
2023/07/06 05:13:09;;;;;;;35.42;12.15;;;;;;;14.30;100.00;101442.19;5051427;28;20040;-54
2023/07/06 05:15:36;;;;;;;33.67;11.43;;;;;;;14.06;100.00;101377.81;5052528;28;20037;-58
2023/07/06 05:18:01;;;;;;;30.33;12.18;;;;;;;14.16;100.00;101380.94;5052777;28;20065;-55
2023/07/06 05:20:28;;;;;;;28.65;11.45;;;;;;;14.16;100.00;101383.59;5071034;28;20087;-50
2023/07/06 05:22:53;;;;;;;28.17;12.00;;;;;;;14.23;100.00;101388.59;5072400;28;20442;-50
2023/07/06 05:25:19;;;;;;;36.47;12.52;;;;;;;14.64;100.00;101467.34;5072459;28;20052;-53
2023/07/06 05:27:46;;;;;;;29.77;11.60;;;;;;;14.76;100.00;101449.25;5072593;28;20032;-50
2023/07/06 05:30:11;;;;;;;32.60;11.57;;;;;;;14.43;100.00;101391.38;5071174;28;20459;-51
2023/07/06 05:32:37;;;;;;;29.48;12.10;;;;;;;14.90;100.00;101453.06;5070980;28;20052;-55
2023/07/06 05:35:03;;;;;;;33.90;12.60;;;;;;;14.64;100.00;101389.66;5070922;28;20072;-48
2023/07/06 05:37:29;;;;;;;30.70;11.85;;;;;;;15.16;100.00;101458.16;5071942;28;20036;-48
2023/07/06 05:39:54;;;;;;;24.65;11.02;;;;;;;15.04;100.00;101431.28;5071247;28;20472;-56
2023/07/06 05:42:19;;;;;;;27.02;10.80;;;;;;;15.38;100.00;101459.91;5072693;28;20128;-53
2023/07/06 05:44:45;;;;;;;29.50;11.35;;;;;;;15.54;100.00;101471.63;5054195;28;20044;-51
2023/07/06 05:47:11;;;;;;;25.02;10.27;;;;;;;15.32;100.00;101402.69;5071789;28;20086;-56
2023/07/06 05:49:37;;;;;;;28.20;11.02;;;;;;;15.72;100.00;101457.56;5070498;28;20426;-50
2023/07/06 05:52:06;;;;;;;29.42;9.57;;;;;;;15.84;100.00;101477.41;5049921;28;20045;-54
2023/07/06 05:54:32;;;;;;;25.42;9.00;;;;;;;15.41;100.00;101381.03;5051985;28;20045;-49
2023/07/06 05:57:00;;;;;;;18.92;8.95;;;;;;;15.95;100.00;101467.16;5050666;28;20029;-55
2023/07/06 05:59:26;;;;;;;21.63;8.73;;;;;;;16.03;100.00;101452.63;5034625;28;20491;-57
2023/07/06 06:01:52;;;;;;;23.90;9.10;;;;;;;15.79;100.00;101389.16;5052140;28;20169;-54
2023/07/06 06:04:18;;;;;;;16.55;9.15;;;;;;;16.28;100.00;101449.72;5054694;28;20032;-52
2023/07/06 06:06:52;;;;;;;19.27;9.13;;;;;;;16.26;100.00;101452.41;5055516;28;20502;-50
2023/07/06 06:09:18;;;;;;;22.48;9.02;;;;;;;16.33;100.00;101440.59;5038536;28;20052;-53
2023/07/06 06:11:43;;;;;;;23.98;9.93;;;;;;;16.27;100.00;101409.00;5038205;28;20033;-52
2023/07/06 06:14:08;;;;;;;26.17;9.57;;;;;;;16.20;100.00;101401.38;5055732;28;20094;-56
2023/07/06 06:16:34;;;;;;;18.00;8.40;;;;;;;16.67;100.00;101452.31;5056000;28;20047;-54
2023/07/06 06:19:01;;;;;;;23.88;9.38;;;;;;;16.46;100.00;101410.78;5038213;28;20051;-49
2023/07/06 06:21:30;;;;;;;15.02;7.63;;;;;;;16.97;100.00;101484.53;5038021;28;20029;-48
2023/07/06 06:23:57;;;;;;;16.98;8.13;;;;;;;17.02;100.00;101462.09;5063774;28;20036;-54
2023/07/06 06:26:25;;;;;;;14.88;7.00;;;;;;;17.33;100.00;101491.59;5075671;28;20028;-51
2023/07/06 06:28:51;;;;;;;19.15;7.50;;;;;;;17.42;100.00;101467.16;5075661;28;20042;-52
2023/07/06 06:31:17;;;;;;;16.27;6.22;;;;;;;17.29;100.00;101427.94;5040601;28;20437;-53
2023/07/06 06:33:44;;;;;;;16.40;7.15;;;;;;;17.84;100.00;101484.56;5074405;28;20086;-50
2023/07/06 06:36:12;;;;;;;14.63;5.05;;;;;;;18.09;100.00;101502.78;5075371;28;20037;-51
2023/07/06 06:38:37;;;;;;;13.32;5.53;;;;;;;17.92;100.00;101451.25;5075612;28;20103;-50
2023/07/06 06:41:07;;;;;;;17.17;5.50;;;;;;;18.21;100.00;101464.84;5056486;28;20139;-48
2023/07/06 06:43:43;;;;;;;8.05;4.57;;;;;;;17.71;100.00;101374.31;5075548;28;20029;-50
2023/07/06 06:46:09;;;;;;;10.85;4.55;;;;;;;18.33;100.00;101512.16;5075187;28;20089;-49
2023/07/06 06:48:35;;;;;;;11.48;4.10;;;;;;;18.33;100.00;101525.47;5075496;28;20048;-50
2023/07/06 06:51:02;;;;;;;8.95;3.22;;;;;;;17.74;100.00;101459.34;5057472;28;20037;-50
2023/07/06 06:53:28;;;;;;;7.18;3.50;;;;;;;17.71;100.00;101470.16;5057553;28;20427;-50
2023/07/06 06:55:54;;;;;;;11.82;3.95;;;;;;;18.20;100.00;101530.59;5074926;28;20043;-48
2023/07/06 06:58:23;;;;;;;9.45;3.47;;;;;;;18.38;100.00;101510.94;5074046;28;20037;-56
2023/07/06 07:00:51;;;;;;;10.82;3.47;;;;;;;18.58;100.00;101533.03;5074844;28;20098;-49
2023/07/06 07:03:16;;;;;;;8.50;3.08;;;;;;;18.41;100.00;101529.44;5057518;28;20040;-49
2023/07/06 07:05:41;;;;;;;7.15;3.20;;;;;;;18.32;100.00;101545.06;5075090;28;20521;-50
2023/07/06 07:08:07;;;;;;;9.88;3.08;;;;;;;18.14;100.00;101540.69;5074245;28;20055;-47
2023/07/06 07:10:32;;;;;;;7.18;3.25;;;;;;;17.81;100.00;101522.00;5055831;28;20078;-50
2023/07/06 07:12:58;;;;;;;7.50;3.72;;;;;;;17.49;100.00;101499.66;5072081;28;20983;-51
2023/07/06 07:15:24;;;;;;;9.80;3.17;;;;;;;17.49;100.00;101502.31;5054556;28;20518;-48
2023/07/06 07:17:51;;;;;;;9.98;2.70;;;;;;;17.72;100.00;101528.66;5072579;28;20039;-50
2023/07/06 07:20:17;;;;;;;8.32;2.85;;;;;;;17.74;100.00;101459.34;5055706;28;20494;-57
2023/07/06 07:22:44;;;;;;;11.30;3.40;;;;;;;18.47;100.00;101521.13;5055732;28;20052;-54
2023/07/06 07:25:10;;;;;;;12.45;3.45;;;;;;;19.05;100.00;101547.25;5055799;28;20503;-52
2023/07/06 07:27:36;;;;;;;5.65;2.65;;;;;;;19.30;100.00;101541.38;5073438;28;20028;-51
2023/07/06 07:30:05;;;;;;;4.47;2.22;;;;;;;19.21;100.00;101477.84;5055458;28;20090;-54
2023/07/06 07:32:31;;;;;;;5.97;2.63;;;;;;;19.27;100.00;101498.84;5072318;28;20029;-51
2023/07/06 07:34:58;;;;;;;6.90;2.60;;;;;;;19.13;100.00;101512.13;5073489;28;20047;-48
2023/07/06 07:37:24;;;;;;;6.65;2.65;;;;;;;19.02;100.00;101520.75;5072121;28;20037;-51
2023/07/06 07:39:50;;;;;;;7.38;2.35;;;;;;;18.84;100.00;101535.97;5070765;28;20494;-53
2023/07/06 07:42:16;;;;;;;5.00;2.30;;;;;;;18.87;100.00;101580.28;5057613;28;20036;-50
2023/07/06 07:44:45;;;;;;;6.43;2.90;;;;;;;18.85;100.00;101577.72;5055436;28;20037;-50
2023/07/06 07:47:18;;;;;;;6.05;2.58;;;;;;;19.22;100.00;101568.50;5073181;28;20555;-53
2023/07/06 07:49:47;;;;;;;4.53;1.92;;;;;;;19.45;100.00;101517.38;5073330;28;20035;-50
2023/07/06 07:52:13;;;;;;;5.07;1.73;;;;;;;20.59;100.00;101574.59;5055260;28;20039;-48
2023/07/06 07:54:39;;;;;;;4.68;1.88;;;;;;;21.42;100.00;101590.66;5072736;28;20036;-49
2023/07/06 07:57:06;;;;;;;6.15;2.35;;;;;;;22.14;100.00;101589.38;5072677;28;20033;-56
2023/07/06 07:59:33;;;;;;;7.75;2.25;;;;;;;22.26;100.00;101572.44;5073068;28;20025;-51
2023/07/06 08:01:58;;;;;;;7.55;2.33;;;;;;;22.33;100.00;101589.81;5071893;28;20532;-56
2023/07/06 08:04:24;;;;;;;10.00;2.63;;;;;;;21.69;100.00;101591.47;5017114;28;20029;-51
2023/07/06 08:06:50;;;;;;;8.73;2.72;;;;;;;20.85;100.00;101522.97;5014238;28;1091361;-53
2023/07/06 08:09:16;;;;;;;5.72;3.17;;;;;;;21.22;100.00;101589.25;5070217;28;20045;-51
2023/07/06 08:11:46;;;;;;;8.45;2.80;;;;;;;21.82;100.00;101584.34;5055781;28;20039;-57
2023/07/06 08:14:12;;;;;;;9.18;2.67;;;;;;;22.48;100.00;101601.28;5073552;28;20036;-49
2023/07/06 08:16:40;;;;;;;6.93;2.90;;;;;;;22.41;100.00;101550.78;5073583;28;20040;-50
2023/07/06 08:19:07;;;;;;;7.95;3.08;;;;;;;22.36;100.00;101592.28;5055991;28;20058;-51
2023/07/06 08:21:32;;;;;;;5.93;2.40;;;;;;;21.55;100.00;101546.00;5054941;28;20372;-52
2023/07/06 08:23:58;;;;;;;6.53;2.50;;;;;;;21.26;100.00;101609.53;5056334;28;20037;-53
2023/07/06 08:26:24;;;;;;;7.75;2.53;;;;;;;20.54;100.00;101598.09;5051607;28;20045;-49
2023/07/06 08:28:49;;;;;;;5.60;2.90;;;;;;;19.97;100.00;101591.75;5053371;28;20032;-58
2023/07/06 08:31:17;;;;;;;5.53;2.38;;;;;;;19.69;100.00;101605.88;5053328;28;20041;-55
2023/07/06 08:33:43;;;;;;;5.75;2.20;;;;;;;19.16;100.00;101549.31;5067104;28;20033;-53
2023/07/06 08:36:09;;;;;;;5.53;2.45;;;;;;;19.03;100.00;101607.88;5073100;28;20041;-55
2023/07/06 08:38:38;;;;;;;6.38;2.17;;;;;;;18.79;100.00;101594.06;5073123;28;20063;-53
2023/07/06 08:41:12;;;;;;;5.07;2.47;;;;;;;18.60;100.00;101609.31;5073292;28;20028;-50
2023/07/06 08:43:38;;;;;;;10.98;2.50;;;;;;;18.06;100.00;101543.78;5072693;28;20387;-48
2023/07/06 08:46:05;;;;;;;7.82;2.58;;;;;;;18.44;100.00;101614.59;5055315;28;20201;-52
2023/07/06 08:48:34;;;;;;;7.10;2.78;;;;;;;17.81;100.00;101535.31;5062339;28;20112;-49
2023/07/06 08:51:15;;;;;;;6.25;2.13;;;;;;;17.91;100.00;101550.75;5072923;28;20042;-57
2023/07/06 08:53:48;;;;;;;7.53;2.38;;;;;;;17.78;100.00;101554.09;5071757;28;20040;-59
2023/07/06 08:56:16;;;;;;;8.43;2.28;;;;;;;17.85;100.00;101556.41;5072926;28;20050;-54
2023/07/06 08:58:41;;;;;;;4.32;1.98;;;;;;;18.29;100.00;101612.72;5033353;28;20041;-48
2023/07/06 09:01:16;;;;;;;2.88;2.10;;;;;;;18.06;100.00;101557.09;5034952;28;20033;-53
2023/07/06 09:03:48;;;;;;;4.95;2.25;;;;;;;18.30;100.00;101611.75;5052339;28;20484;-50
2023/07/06 09:06:18;;;;;;;8.23;2.20;;;;;;;17.95;100.00;101562.09;5054976;28;20040;-52
2023/07/06 09:08:45;;;;;;;8.38;2.00;;;;;;;17.95;100.00;101568.28;5071175;28;20049;-50
2023/07/06 09:11:12;;;;;;;4.47;2.20;;;;;;;18.27;100.00;101619.91;5072616;28;20480;-53
2023/07/06 09:13:58;;;;;;;8.00;2.47;;;;;;;17.93;100.00;101571.97;5072519;28;20024;-49
2023/07/06 09:16:25;;;;;;;8.00;3.05;;;;;;;18.38;100.00;101636.22;5072619;28;20037;-53
2023/07/06 09:18:55;;;;;;;7.18;2.10;;;;;;;18.49;100.00;101635.69;5072620;28;20056;-53
2023/07/06 09:21:22;;;;;;;8.25;1.98;;;;;;;18.96;100.00;101641.16;5055070;28;20041;-54
2023/07/06 09:23:47;;;;;;;6.93;2.20;;;;;;;19.67;100.00;101666.53;5071057;28;20369;-53
2023/07/06 09:26:26;;;;;;;3.83;2.03;;;;;;;20.09;100.00;101602.56;5052391;28;20044;-55
2023/07/06 09:29:09;;;;;;;4.53;2.08;;;;;;;21.14;100.00;101669.22;5051464;28;20028;-57
2023/07/06 09:31:36;;;;;;;4.93;1.83;;;;;;;21.96;100.00;101665.69;5052195;28;20033;-54
2023/07/06 09:34:04;;;;;;;5.40;2.17;;;;;;;22.83;100.00;101683.78;5052111;28;20143;-50
2023/07/06 09:36:30;;;;;;;3.45;1.33;;;;;;;23.36;100.00;101677.28;5034144;28;20331;-51
2023/07/06 09:39:03;;;;;;;3.35;1.58;;;;;;;23.00;100.00;101639.63;5034344;28;20037;-51
2023/07/06 09:41:29;;;;;;;3.97;1.80;;;;;;;23.64;100.00;101696.78;5066921;28;20033;-54
2023/07/06 09:43:58;;;;;;;2.53;1.00;;;;;;;23.61;100.00;101695.19;5072304;28;20033;-50
2023/07/06 09:46:26;;;;;;;1.83;1.10;;;;;;;23.57;100.00;101707.13;5054389;28;20082;-52
2023/07/06 09:48:52;;;;;;;1.67;1.10;;;;;;;23.38;100.00;101714.78;5054311;28;20257;-48
2023/07/06 09:51:24;;;;;;;2.08;1.05;;;;;;;22.79;100.00;101709.13;5072148;28;20044;-50
2023/07/06 09:53:55;;;;;;;2.95;1.40;;;;;;;22.64;100.00;101715.56;5072330;28;20056;-50
2023/07/06 09:56:20;;;;;;;2.88;1.13;;;;;;;22.34;100.00;101680.91;5072041;28;20513;-51
2023/07/06 09:58:48;;;;;;;2.67;0.98;;;;;;;22.98;100.00;101725.66;5053096;28;20349;-55
2023/07/06 10:01:27;;;;;;;1.00;0.70;;;;;;;22.84;100.00;101665.84;5072035;28;20028;-54
2023/07/06 10:04:24;;;;;;;4.22;0.90;;;;;;;23.52;100.00;101741.56;5053935;28;20048;-54
2023/07/06 10:07:05;;;;;;;3.17;1.00;;;;;;;24.30;100.00;101732.13;5071681;28;20032;-55
2023/07/06 10:09:49;;;;;;;7.22;1.13;;;;;;;24.77;100.00;101744.66;5071916;28;20034;-58
2023/07/06 10:12:38;;;;;;;2.08;1.00;;;;;;;25.18;100.00;101742.31;5071778;28;20361;-53
2023/07/06 10:15:11;;;;;;;1.77;1.00;;;;;;;24.69;100.00;101674.41;5069141;28;20040;-51
2023/07/06 10:17:38;;;;;;;2.47;0.50;;;;;;;24.95;100.00;101735.19;5070747;28;20029;-52
2023/07/06 10:20:22;;;;;;;1.67;0.65;;;;;;;25.16;100.00;101756.84;5070513;28;20035;-57
2023/07/06 10:23:06;;;;;;;1.50;0.93;;;;;;;25.29;100.00;101751.34;5070863;28;20064;-49
2023/07/06 10:25:58;;;;;;;0.95;0.68;;;;;;;25.85;100.00;101754.91;5071840;28;20127;-54
2023/07/06 10:28:32;;;;;;;0.77;0.68;;;;;;;26.04;100.00;101745.16;5019222;28;20174;-50
2023/07/06 10:30:58;;;;;;;1.52;0.60;;;;;;;26.48;95.03;101738.75;5071703;28;20029;-53
2023/07/06 10:33:29;;;;;;;2.40;0.60;;;;;;;26.57;95.30;101700.19;5053299;28;20456;-51
2023/07/06 10:35:55;;;;;;;;;;;;;;;26.37;95.29;101752.31;5054273;28;20067;-52
2023/07/06 10:38:20;;;;;;;1.58;0.93;;;;;;;25.85;98.03;101698.25;5053890;28;19955;-57
2023/07/06 10:41:09;;;;;;;2.95;0.60;;;;;;;26.42;95.25;101752.78;5070539;28;20090;-50
2023/07/06 10:43:37;;;;;;;2.40;0.63;;;;;;;26.58;97.51;101761.31;5071547;28;20040;-54
2023/07/06 10:46:33;;;;;;;4.43;0.75;;;;;;;26.61;96.05;101754.78;5054297;28;20173;-49
2023/07/06 10:49:18;;;;;;;1.38;0.75;;;;;;;26.98;98.42;101747.94;5047056;28;20145;-49
2023/07/06 10:51:56;;;;;;;1.98;0.73;;;;;;;26.68;88.22;101700.09;5075392;28;20029;-50
2023/07/06 10:54:24;;;;;;;2.78;0.70;;;;;;;26.71;90.79;101707.06;5073929;28;20046;-54
2023/07/06 10:57:05;;;;;;;1.85;0.68;;;;;;;26.69;92.50;101717.16;5074004;28;20109;-50
2023/07/06 10:59:38;;;;;;;1.98;0.63;;;;;;;26.54;88.85;101699.56;5057372;28;20032;-53
2023/07/06 11:02:25;;;;;;;1.60;0.73;;;;;;;27.28;88.21;101764.19;5073692;28;20036;-49
2023/07/06 11:05:10;;;;;;;1.00;0.60;;;;;;;27.37;80.84;101779.63;5075008;28;20145;-52
2023/07/06 11:07:38;;;;;;;1.20;0.80;;;;;;;26.66;79.77;101752.53;5074936;28;20072;-50
2023/07/06 11:10:21;;;;;;;1.35;0.70;;;;;;;26.65;79.89;101729.22;5074858;28;20498;-49
2023/07/06 11:12:53;;;;;;;1.10;0.80;;;;;;;27.05;86.61;101775.31;5075344;28;20492;-54
2023/07/06 11:15:21;;;;;;;3.42;0.88;;;;;;;27.03;91.11;101751.09;5074920;28;20049;-47
2023/07/06 11:17:50;;;;;;;2.30;0.88;;;;;;;27.29;84.98;101733.44;5056281;28;20089;-54
2023/07/06 11:20:20;;;;;;;2.03;0.95;;;;;;;27.54;81.77;101785.41;5057198;28;20036;-52